sensor_id;sensor_type;location;lat;lon;timestamp;P1;durP1;ratioP1;P2;durP2;ratioP2
537;SDS011;254;48.524;8.926;2022-09-12T00:00:03;12.8;;;11.6;;
537;SDS011;254;48.524;8.926;2022-09-12T00:01:03;13.3;;;12.1;;
537;SDS011;254;48.524;8.926;2022-09-12T00:02:02;12.8;;;11.5;;
537;SDS011;254;48.524;8.926;2022-09-12T00:03:02;13.4;;;12.1;;
537;SDS011;254;48.524;8.926;2022-09-12T00:04:03;13.1;;;11.9;;
537;SDS011;254;48.524;8.926;2022-09-12T00:05:02;14.3;;;12.9;;
537;SDS011;254;48.524;8.926;2022-09-12T00:06:06;13.0;;;11.8;;
537;SDS011;254;48.524;8.926;2022-09-12T00:07:02;13.5;;;12.3;;
537;SDS011;254;48.524;8.926;2022-09-12T00:08:02;13.9;;;12.7;;
537;SDS011;254;48.524;8.926;2022-09-12T00:09:03;13.6;;;12.4;;
537;SDS011;254;48.524;8.926;2022-09-12T00:10:02;13.5;;;12.3;;
537;SDS011;254;48.524;8.926;2022-09-12T00:11:03;13.7;;;12.3;;
537;SDS011;254;48.524;8.926;2022-09-12T00:12:02;13.5;;;12.1;;
537;SDS011;254;48.524;8.926;2022-09-12T00:13:02;13.7;;;12.4;;
537;SDS011;254;48.524;8.926;2022-09-12T00:14:03;14.1;;;12.7;;
537;SDS011;254;48.524;8.926;2022-09-12T00:15:02;14.2;;;12.8;;
537;SDS011;254;48.524;8.926;2022-09-12T00:16:02;13.6;;;12.3;;
537;SDS011;254;48.524;8.926;2022-09-12T00:17:02;14.2;;;12.8;;
537;SDS011;254;48.524;8.926;2022-09-12T00:18:02;13.9;;;12.6;;
537;SDS011;254;48.524;8.926;2022-09-12T00:19:02;14.3;;;13.1;;
537;SDS011;254;48.524;8.926;2022-09-12T00:20:03;14.2;;;12.7;;
537;SDS011;254;48.524;8.926;2022-09-12T00:21:03;14.2;;;12.7;;
537;SDS011;254;48.524;8.926;2022-09-12T00:22:03;13.6;;;12.3;;
537;SDS011;254;48.524;8.926;2022-09-12T00:23:01;13.2;;;12.1;;
537;SDS011;254;48.524;8.926;2022-09-12T00:24:02;14.4;;;12.0;;
537;SDS011;254;48.524;8.926;2022-09-12T00:25:03;13.4;;;12.2;;
537;SDS011;254;48.524;8.926;2022-09-12T00:26:03;13.5;;;12.3;;
537;SDS011;254;48.524;8.926;2022-09-12T00:27:02;14.0;;;12.7;;
537;SDS011;254;48.524;8.926;2022-09-12T00:28:02;14.1;;;12.7;;
537;SDS011;254;48.524;8.926;2022-09-12T00:29:02;12.6;;;11.4;;
537;SDS011;254;48.524;8.926;2022-09-12T00:30:02;13.1;;;12.0;;
537;SDS011;254;48.524;8.926;2022-09-12T00:31:03;13.1;;;11.7;;
537;SDS011;254;48.524;8.926;2022-09-12T00:32:03;14.1;;;12.8;;
537;SDS011;254;48.524;8.926;2022-09-12T00:33:02;14.4;;;13.1;;
537;SDS011;254;48.524;8.926;2022-09-12T00:34:02;13.8;;;12.6;;
537;SDS011;254;48.524;8.926;2022-09-12T00:35:03;14.2;;;12.8;;
537;SDS011;254;48.524;8.926;2022-09-12T00:36:03;13.2;;;11.0;;
537;SDS011;254;48.524;8.926;2022-09-12T00:37:03;11.1;;;10.2;;
537;SDS011;254;48.524;8.926;2022-09-12T00:38:02;10.9;;;9.9;;
537;SDS011;254;48.524;8.926;2022-09-12T00:39:02;11.8;;;10.8;;
537;SDS011;254;48.524;8.926;2022-09-12T00:40:03;11.6;;;10.6;;
537;SDS011;254;48.524;8.926;2022-09-12T00:41:01;11.9;;;10.8;;
537;SDS011;254;48.524;8.926;2022-09-12T00:42:02;12.6;;;11.4;;
537;SDS011;254;48.524;8.926;2022-09-12T00:43:02;11.8;;;10.8;;
537;SDS011;254;48.524;8.926;2022-09-12T00:44:38;11.5;;;10.5;;
537;SDS011;254;48.524;8.926;2022-09-12T00:45:03;11.3;;;10.3;;
537;SDS011;254;48.524;8.926;2022-09-12T00:46:03;10.7;;;9.7;;
537;SDS011;254;48.524;8.926;2022-09-12T00:47:02;11.7;;;10.5;;
537;SDS011;254;48.524;8.926;2022-09-12T00:48:02;10.7;;;9.8;;
537;SDS011;254;48.524;8.926;2022-09-12T00:49:04;11.2;;;10.2;;
537;SDS011;254;48.524;8.926;2022-09-12T00:50:03;10.5;;;9.5;;
537;SDS011;254;48.524;8.926;2022-09-12T00:51:02;10.9;;;10.0;;
537;SDS011;254;48.524;8.926;2022-09-12T00:52:03;12.4;;;10.2;;
537;SDS011;254;48.524;8.926;2022-09-12T00:53:03;11.4;;;10.4;;
537;SDS011;254;48.524;8.926;2022-09-12T00:54:04;10.8;;;9.9;;
537;SDS011;254;48.524;8.926;2022-09-12T00:55:04;12.8;;;10.7;;
537;SDS011;254;48.524;8.926;2022-09-12T00:56:01;10.9;;;9.9;;
537;SDS011;254;48.524;8.926;2022-09-12T00:57:03;11.0;;;10.1;;
537;SDS011;254;48.524;8.926;2022-09-12T00:58:03;11.0;;;10.0;;
537;SDS011;254;48.524;8.926;2022-09-12T00:59:04;11.1;;;10.1;;
537;SDS011;254;48.524;8.926;2022-09-12T01:00:05;11.8;;;10.1;;
537;SDS011;254;48.524;8.926;2022-09-12T01:01:02;11.3;;;10.2;;
537;SDS011;254;48.524;8.926;2022-09-12T01:02:02;12.5;;;11.3;;
537;SDS011;254;48.524;8.926;2022-09-12T01:03:03;12.4;;;11.2;;
537;SDS011;254;48.524;8.926;2022-09-12T01:04:02;11.6;;;10.4;;
537;SDS011;254;48.524;8.926;2022-09-12T01:05:02;12.7;;;11.4;;
537;SDS011;254;48.524;8.926;2022-09-12T01:06:03;12.2;;;11.0;;
537;SDS011;254;48.524;8.926;2022-09-12T01:07:03;13.0;;;11.9;;
537;SDS011;254;48.524;8.926;2022-09-12T01:08:03;12.9;;;11.8;;
537;SDS011;254;48.524;8.926;2022-09-12T01:09:02;13.9;;;12.5;;
537;SDS011;254;48.524;8.926;2022-09-12T01:10:03;13.2;;;12.0;;
537;SDS011;254;48.524;8.926;2022-09-12T01:11:02;13.1;;;11.8;;
537;SDS011;254;48.524;8.926;2022-09-12T01:12:02;12.9;;;11.5;;
537;SDS011;254;48.524;8.926;2022-09-12T01:13:03;12.0;;;10.9;;
537;SDS011;254;48.524;8.926;2022-09-12T01:14:02;13.0;;;11.7;;
537;SDS011;254;48.524;8.926;2022-09-12T01:15:02;12.5;;;11.3;;
537;SDS011;254;48.524;8.926;2022-09-12T01:16:02;12.4;;;11.3;;
537;SDS011;254;48.524;8.926;2022-09-12T01:17:02;11.5;;;10.5;;
537;SDS011;254;48.524;8.926;2022-09-12T01:18:07;12.1;;;11.0;;
537;SDS011;254;48.524;8.926;2022-09-12T01:19:05;12.1;;;11.0;;
537;SDS011;254;48.524;8.926;2022-09-12T01:20:12;11.7;;;10.7;;
537;SDS011;254;48.524;8.926;2022-09-12T01:21:05;12.1;;;11.0;;
537;SDS011;254;48.524;8.926;2022-09-12T01:22:08;11.6;;;10.6;;
537;SDS011;254;48.524;8.926;2022-09-12T01:23:08;11.9;;;10.7;;
537;SDS011;254;48.524;8.926;2022-09-12T01:24:11;12.1;;;10.9;;
537;SDS011;254;48.524;8.926;2022-09-12T01:25:06;12.2;;;10.9;;
537;SDS011;254;48.524;8.926;2022-09-12T01:26:08;11.8;;;10.7;;
537;SDS011;254;48.524;8.926;2022-09-12T01:27:12;11.4;;;10.3;;
537;SDS011;254;48.524;8.926;2022-09-12T01:28:09;11.2;;;10.1;;
537;SDS011;254;48.524;8.926;2022-09-12T01:29:08;11.5;;;10.5;;
537;SDS011;254;48.524;8.926;2022-09-12T01:30:14;11.2;;;10.2;;
537;SDS011;254;48.524;8.926;2022-09-12T01:31:02;11.8;;;10.7;;
537;SDS011;254;48.524;8.926;2022-09-12T01:32:02;12.0;;;10.9;;
537;SDS011;254;48.524;8.926;2022-09-12T01:33:14;11.3;;;10.3;;
537;SDS011;254;48.524;8.926;2022-09-12T01:34:06;13.7;;;10.7;;
537;SDS011;254;48.524;8.926;2022-09-12T01:35:03;12.5;;;11.3;;
537;SDS011;254;48.524;8.926;2022-09-12T01:36:06;12.6;;;11.5;;
537;SDS011;254;48.524;8.926;2022-09-12T01:37:03;11.8;;;10.8;;
537;SDS011;254;48.524;8.926;2022-09-12T01:38:06;11.1;;;10.1;;
537;SDS011;254;48.524;8.926;2022-09-12T01:39:04;11.0;;;10.1;;
537;SDS011;254;48.524;8.926;2022-09-12T01:40:04;10.6;;;9.7;;
537;SDS011;254;48.524;8.926;2022-09-12T01:41:05;10.0;;;9.2;;
537;SDS011;254;48.524;8.926;2022-09-12T01:42:04;10.2;;;9.3;;
537;SDS011;254;48.524;8.926;2022-09-12T01:43:03;9.3;;;8.5;;
537;SDS011;254;48.524;8.926;2022-09-12T01:44:03;8.7;;;8.0;;
537;SDS011;254;48.524;8.926;2022-09-12T01:45:05;9.2;;;8.5;;
537;SDS011;254;48.524;8.926;2022-09-12T01:46:05;9.5;;;8.6;;
537;SDS011;254;48.524;8.926;2022-09-12T01:47:04;8.8;;;8.1;;
537;SDS011;254;48.524;8.926;2022-09-12T01:48:03;8.9;;;8.2;;
537;SDS011;254;48.524;8.926;2022-09-12T01:49:05;8.9;;;8.2;;
537;SDS011;254;48.524;8.926;2022-09-12T01:50:04;9.4;;;8.6;;
537;SDS011;254;48.524;8.926;2022-09-12T01:51:03;8.6;;;7.9;;
537;SDS011;254;48.524;8.926;2022-09-12T01:52:04;9.8;;;9.0;;
537;SDS011;254;48.524;8.926;2022-09-12T01:53:04;9.8;;;9.0;;
537;SDS011;254;48.524;8.926;2022-09-12T01:54:04;9.8;;;9.0;;
537;SDS011;254;48.524;8.926;2022-09-12T01:55:05;9.9;;;9.0;;
537;SDS011;254;48.524;8.926;2022-09-12T01:56:05;10.7;;;9.8;;
537;SDS011;254;48.524;8.926;2022-09-12T01:57:03;10.2;;;9.2;;
537;SDS011;254;48.524;8.926;2022-09-12T01:58:04;10.1;;;9.2;;
537;SDS011;254;48.524;8.926;2022-09-12T01:59:03;9.7;;;8.9;;
537;SDS011;254;48.524;8.926;2022-09-12T02:00:05;10.4;;;9.5;;
537;SDS011;254;48.524;8.926;2022-09-12T02:01:03;10.2;;;9.4;;
537;SDS011;254;48.524;8.926;2022-09-12T02:02:02;10.9;;;9.8;;
537;SDS011;254;48.524;8.926;2022-09-12T02:03:02;10.4;;;9.5;;
537;SDS011;254;48.524;8.926;2022-09-12T02:04:03;10.5;;;9.6;;
537;SDS011;254;48.524;8.926;2022-09-12T02:05:04;11.1;;;9.9;;
537;SDS011;254;48.524;8.926;2022-09-12T02:06:03;11.8;;;9.6;;
537;SDS011;254;48.524;8.926;2022-09-12T02:07:04;9.9;;;9.0;;
537;SDS011;254;48.524;8.926;2022-09-12T02:08:04;10.7;;;9.8;;
537;SDS011;254;48.524;8.926;2022-09-12T02:09:04;11.1;;;10.2;;
537;SDS011;254;48.524;8.926;2022-09-12T02:10:04;11.9;;;10.8;;
537;SDS011;254;48.524;8.926;2022-09-12T02:11:05;11.5;;;10.3;;
537;SDS011;254;48.524;8.926;2022-09-12T02:12:03;11.3;;;10.3;;
537;SDS011;254;48.524;8.926;2022-09-12T02:13:02;10.9;;;9.9;;
537;SDS011;254;48.524;8.926;2022-09-12T02:14:03;11.0;;;9.9;;
537;SDS011;254;48.524;8.926;2022-09-12T02:15:03;10.9;;;9.7;;
537;SDS011;254;48.524;8.926;2022-09-12T02:16:03;12.3;;;9.8;;
537;SDS011;254;48.524;8.926;2022-09-12T02:17:03;11.2;;;10.0;;
537;SDS011;254;48.524;8.926;2022-09-12T02:18:03;12.2;;;10.9;;
537;SDS011;254;48.524;8.926;2022-09-12T02:19:04;11.6;;;10.6;;
537;SDS011;254;48.524;8.926;2022-09-12T02:20:04;13.2;;;12.0;;
537;SDS011;254;48.524;8.926;2022-09-12T02:21:02;11.3;;;10.3;;
537;SDS011;254;48.524;8.926;2022-09-12T02:22:02;10.8;;;9.9;;
537;SDS011;254;48.524;8.926;2022-09-12T02:23:02;11.3;;;10.3;;
537;SDS011;254;48.524;8.926;2022-09-12T02:24:02;10.8;;;9.9;;
537;SDS011;254;48.524;8.926;2022-09-12T02:25:03;11.5;;;10.5;;
537;SDS011;254;48.524;8.926;2022-09-12T02:26:03;11.5;;;10.5;;
537;SDS011;254;48.524;8.926;2022-09-12T02:27:03;12.1;;;10.5;;
537;SDS011;254;48.524;8.926;2022-09-12T02:28:03;11.3;;;10.3;;
537;SDS011;254;48.524;8.926;2022-09-12T02:29:02;10.8;;;9.9;;
537;SDS011;254;48.524;8.926;2022-09-12T02:30:02;10.8;;;9.9;;
537;SDS011;254;48.524;8.926;2022-09-12T02:31:06;10.1;;;9.2;;
537;SDS011;254;48.524;8.926;2022-09-12T02:32:03;10.8;;;9.9;;
537;SDS011;254;48.524;8.926;2022-09-12T02:33:04;10.7;;;9.8;;
537;SDS011;254;48.524;8.926;2022-09-12T02:34:07;10.9;;;9.9;;
537;SDS011;254;48.524;8.926;2022-09-12T02:35:03;10.9;;;9.9;;
537;SDS011;254;48.524;8.926;2022-09-12T02:36:02;10.6;;;9.7;;
537;SDS011;254;48.524;8.926;2022-09-12T02:37:04;10.2;;;9.2;;
537;SDS011;254;48.524;8.926;2022-09-12T02:38:03;10.6;;;9.7;;
537;SDS011;254;48.524;8.926;2022-09-12T02:39:03;11.1;;;10.1;;
537;SDS011;254;48.524;8.926;2022-09-12T02:40:02;12.1;;;11.0;;
537;SDS011;254;48.524;8.926;2022-09-12T02:41:02;11.8;;;10.7;;
537;SDS011;254;48.524;8.926;2022-09-12T02:42:02;10.8;;;9.9;;
537;SDS011;254;48.524;8.926;2022-09-12T02:43:03;11.7;;;10.6;;
537;SDS011;254;48.524;8.926;2022-09-12T02:44:02;11.8;;;10.7;;
537;SDS011;254;48.524;8.926;2022-09-12T02:45:03;12.6;;;11.4;;
537;SDS011;254;48.524;8.926;2022-09-12T02:46:01;21.6;;;12.9;;
537;SDS011;254;48.524;8.926;2022-09-12T02:47:03;25.5;;;13.9;;
537;SDS011;254;48.524;8.926;2022-09-12T02:48:04;16.4;;;13.0;;
537;SDS011;254;48.524;8.926;2022-09-12T02:49:02;24.5;;;14.0;;
537;SDS011;254;48.524;8.926;2022-09-12T02:50:02;28.6;;;13.4;;
537;SDS011;254;48.524;8.926;2022-09-12T02:51:02;37.7;;;14.6;;
537;SDS011;254;48.524;8.926;2022-09-12T02:52:02;40.9;;;14.1;;
537;SDS011;254;48.524;8.926;2022-09-12T02:53:02;45.1;;;14.9;;
537;SDS011;254;48.524;8.926;2022-09-12T02:54:02;14.6;;;13.1;;
537;SDS011;254;48.524;8.926;2022-09-12T02:55:03;19.2;;;13.4;;
537;SDS011;254;48.524;8.926;2022-09-12T02:56:02;22.1;;;14.2;;
537;SDS011;254;48.524;8.926;2022-09-12T02:57:04;19.4;;;13.6;;
537;SDS011;254;48.524;8.926;2022-09-12T02:58:03;16.7;;;14.2;;
537;SDS011;254;48.524;8.926;2022-09-12T02:59:03;20.0;;;14.1;;
537;SDS011;254;48.524;8.926;2022-09-12T03:00:03;17.4;;;14.0;;
537;SDS011;254;48.524;8.926;2022-09-12T03:01:04;16.1;;;13.8;;
537;SDS011;254;48.524;8.926;2022-09-12T03:02:06;15.0;;;13.3;;
537;SDS011;254;48.524;8.926;2022-09-12T03:03:07;15.4;;;13.7;;
537;SDS011;254;48.524;8.926;2022-09-12T03:04:07;15.9;;;14.2;;
537;SDS011;254;48.524;8.926;2022-09-12T03:05:07;15.1;;;13.6;;
537;SDS011;254;48.524;8.926;2022-09-12T03:06:02;14.8;;;13.3;;
537;SDS011;254;48.524;8.926;2022-09-12T03:07:05;14.6;;;13.1;;
537;SDS011;254;48.524;8.926;2022-09-12T03:08:12;14.1;;;12.7;;
537;SDS011;254;48.524;8.926;2022-09-12T03:09:05;13.8;;;12.4;;
537;SDS011;254;48.524;8.926;2022-09-12T03:10:04;14.9;;;12.4;;
537;SDS011;254;48.524;8.926;2022-09-12T03:11:38;13.4;;;12.1;;
537;SDS011;254;48.524;8.926;2022-09-12T03:12:07;13.7;;;12.3;;
537;SDS011;254;48.524;8.926;2022-09-12T03:13:04;13.0;;;11.7;;
537;SDS011;254;48.524;8.926;2022-09-12T03:14:06;12.9;;;11.7;;
537;SDS011;254;48.524;8.926;2022-09-12T03:15:06;12.9;;;11.7;;
537;SDS011;254;48.524;8.926;2022-09-12T03:16:03;12.3;;;11.2;;
537;SDS011;254;48.524;8.926;2022-09-12T03:17:06;12.2;;;11.1;;
537;SDS011;254;48.524;8.926;2022-09-12T03:18:05;13.0;;;11.6;;
537;SDS011;254;48.524;8.926;2022-09-12T03:19:05;13.0;;;11.7;;
537;SDS011;254;48.524;8.926;2022-09-12T03:20:05;13.5;;;12.1;;
537;SDS011;254;48.524;8.926;2022-09-12T03:21:03;12.1;;;11.0;;
537;SDS011;254;48.524;8.926;2022-09-12T03:22:03;13.1;;;11.9;;
537;SDS011;254;48.524;8.926;2022-09-12T03:23:03;14.0;;;12.5;;
537;SDS011;254;48.524;8.926;2022-09-12T03:24:06;13.3;;;11.9;;
537;SDS011;254;48.524;8.926;2022-09-12T03:25:05;14.6;;;13.3;;
537;SDS011;254;48.524;8.926;2022-09-12T03:26:02;13.6;;;12.2;;
537;SDS011;254;48.524;8.926;2022-09-12T03:27:03;13.1;;;11.8;;
537;SDS011;254;48.524;8.926;2022-09-12T03:28:04;13.8;;;12.4;;
537;SDS011;254;48.524;8.926;2022-09-12T03:29:03;14.1;;;12.7;;
537;SDS011;254;48.524;8.926;2022-09-12T03:30:03;12.9;;;11.7;;
537;SDS011;254;48.524;8.926;2022-09-12T03:31:10;12.0;;;10.9;;
537;SDS011;254;48.524;8.926;2022-09-12T03:32:02;12.9;;;11.7;;
537;SDS011;254;48.524;8.926;2022-09-12T03:33:02;15.0;;;11.5;;
537;SDS011;254;48.524;8.926;2022-09-12T03:34:03;17.1;;;12.3;;
537;SDS011;254;48.524;8.926;2022-09-12T03:35:02;43.9;;;12.8;;
537;SDS011;254;48.524;8.926;2022-09-12T03:36:02;39.1;;;12.4;;
537;SDS011;254;48.524;8.926;2022-09-12T03:37:02;45.7;;;12.3;;
537;SDS011;254;48.524;8.926;2022-09-12T03:38:03;17.6;;;11.7;;
537;SDS011;254;48.524;8.926;2022-09-12T03:39:02;12.4;;;11.1;;
537;SDS011;254;48.524;8.926;2022-09-12T03:40:02;13.0;;;11.9;;
537;SDS011;254;48.524;8.926;2022-09-12T03:41:02;12.3;;;11.2;;
537;SDS011;254;48.524;8.926;2022-09-12T03:42:02;13.0;;;11.6;;
537;SDS011;254;48.524;8.926;2022-09-12T03:43:02;11.7;;;10.7;;
537;SDS011;254;48.524;8.926;2022-09-12T03:44:03;14.3;;;11.2;;
537;SDS011;254;48.524;8.926;2022-09-12T03:45:02;11.5;;;10.5;;
537;SDS011;254;48.524;8.926;2022-09-12T03:46:03;11.3;;;10.3;;
537;SDS011;254;48.524;8.926;2022-09-12T03:47:02;12.7;;;11.5;;
537;SDS011;254;48.524;8.926;2022-09-12T03:48:02;12.2;;;11.1;;
537;SDS011;254;48.524;8.926;2022-09-12T03:49:03;12.5;;;10.7;;
537;SDS011;254;48.524;8.926;2022-09-12T03:50:02;11.4;;;10.3;;
537;SDS011;254;48.524;8.926;2022-09-12T03:51:03;10.2;;;9.2;;
537;SDS011;254;48.524;8.926;2022-09-12T03:52:02;11.8;;;10.7;;
537;SDS011;254;48.524;8.926;2022-09-12T03:53:02;11.8;;;10.6;;
537;SDS011;254;48.524;8.926;2022-09-12T03:54:02;12.8;;;10.7;;
537;SDS011;254;48.524;8.926;2022-09-12T03:55:02;11.3;;;10.2;;
537;SDS011;254;48.524;8.926;2022-09-12T03:56:04;12.0;;;10.9;;
537;SDS011;254;48.524;8.926;2022-09-12T03:57:02;11.2;;;10.2;;
537;SDS011;254;48.524;8.926;2022-09-12T03:58:03;12.0;;;10.9;;
537;SDS011;254;48.524;8.926;2022-09-12T03:59:03;12.2;;;11.0;;
537;SDS011;254;48.524;8.926;2022-09-12T04:00:02;12.1;;;10.9;;
537;SDS011;254;48.524;8.926;2022-09-12T04:01:05;10.6;;;9.6;;
537;SDS011;254;48.524;8.926;2022-09-12T04:02:02;13.2;;;10.5;;
537;SDS011;254;48.524;8.926;2022-09-12T04:03:02;11.3;;;10.3;;
537;SDS011;254;48.524;8.926;2022-09-12T04:04:03;10.8;;;9.8;;
537;SDS011;254;48.524;8.926;2022-09-12T04:05:04;11.1;;;10.1;;
537;SDS011;254;48.524;8.926;2022-09-12T04:06:03;10.5;;;9.5;;
537;SDS011;254;48.524;8.926;2022-09-12T04:07:02;11.9;;;10.8;;
537;SDS011;254;48.524;8.926;2022-09-12T04:08:02;12.1;;;10.8;;
537;SDS011;254;48.524;8.926;2022-09-12T04:09:03;12.3;;;11.0;;
537;SDS011;254;48.524;8.926;2022-09-12T04:10:02;18.6;;;11.7;;
537;SDS011;254;48.524;8.926;2022-09-12T04:11:03;21.0;;;12.0;;
537;SDS011;254;48.524;8.926;2022-09-12T04:12:03;13.5;;;12.1;;
537;SDS011;254;48.524;8.926;2022-09-12T04:13:01;13.0;;;11.7;;
537;SDS011;254;48.524;8.926;2022-09-12T04:14:02;12.0;;;10.9;;
537;SDS011;254;48.524;8.926;2022-09-12T04:15:03;11.4;;;10.2;;
537;SDS011;254;48.524;8.926;2022-09-12T04:16:03;11.8;;;10.7;;
537;SDS011;254;48.524;8.926;2022-09-12T04:17:02;10.6;;;9.6;;
537;SDS011;254;48.524;8.926;2022-09-12T04:18:02;11.2;;;10.2;;
537;SDS011;254;48.524;8.926;2022-09-12T04:19:02;13.9;;;10.0;;
537;SDS011;254;48.524;8.926;2022-09-12T04:20:03;10.8;;;9.7;;
537;SDS011;254;48.524;8.926;2022-09-12T04:21:03;10.5;;;9.4;;
537;SDS011;254;48.524;8.926;2022-09-12T04:22:01;10.6;;;9.6;;
537;SDS011;254;48.524;8.926;2022-09-12T04:23:02;23.7;;;9.6;;
537;SDS011;254;48.524;8.926;2022-09-12T04:24:03;20.9;;;8.8;;
537;SDS011;254;48.524;8.926;2022-09-12T04:25:03;24.3;;;9.2;;
537;SDS011;254;48.524;8.926;2022-09-12T04:26:02;21.6;;;9.1;;
537;SDS011;254;48.524;8.926;2022-09-12T04:27:03;11.8;;;8.1;;
537;SDS011;254;48.524;8.926;2022-09-12T04:28:02;14.5;;;7.8;;
537;SDS011;254;48.524;8.926;2022-09-12T04:29:02;12.3;;;8.3;;
537;SDS011;254;48.524;8.926;2022-09-12T04:30:03;9.6;;;8.3;;
537;SDS011;254;48.524;8.926;2022-09-12T04:31:03;13.3;;;7.5;;
537;SDS011;254;48.524;8.926;2022-09-12T04:32:02;16.3;;;8.1;;
537;SDS011;254;48.524;8.926;2022-09-12T04:33:02;18.0;;;7.5;;
537;SDS011;254;48.524;8.926;2022-09-12T04:34:05;10.5;;;7.0;;
537;SDS011;254;48.524;8.926;2022-09-12T04:35:02;7.4;;;6.8;;
537;SDS011;254;48.524;8.926;2022-09-12T04:36:03;6.8;;;6.2;;
537;SDS011;254;48.524;8.926;2022-09-12T04:37:02;6.8;;;6.2;;
537;SDS011;254;48.524;8.926;2022-09-12T04:38:02;6.7;;;6.2;;
537;SDS011;254;48.524;8.926;2022-09-12T04:39:05;7.3;;;6.7;;
537;SDS011;254;48.524;8.926;2022-09-12T04:40:02;6.4;;;5.9;;
537;SDS011;254;48.524;8.926;2022-09-12T04:41:08;7.1;;;6.5;;
537;SDS011;254;48.524;8.926;2022-09-12T04:42:02;7.2;;;6.6;;
537;SDS011;254;48.524;8.926;2022-09-12T04:43:02;7.6;;;6.9;;
537;SDS011;254;48.524;8.926;2022-09-12T04:44:03;7.1;;;6.5;;
537;SDS011;254;48.524;8.926;2022-09-12T04:45:03;6.7;;;6.1;;
537;SDS011;254;48.524;8.926;2022-09-12T04:46:03;7.2;;;6.5;;
537;SDS011;254;48.524;8.926;2022-09-12T04:47:03;9.2;;;6.9;;
537;SDS011;254;48.524;8.926;2022-09-12T04:48:02;8.1;;;7.3;;
537;SDS011;254;48.524;8.926;2022-09-12T04:49:02;8.8;;;7.1;;
537;SDS011;254;48.524;8.926;2022-09-12T04:50:03;7.9;;;7.2;;
537;SDS011;254;48.524;8.926;2022-09-12T04:51:06;7.9;;;7.1;;
537;SDS011;254;48.524;8.926;2022-09-12T04:52:02;8.3;;;7.5;;
537;SDS011;254;48.524;8.926;2022-09-12T04:53:02;7.9;;;7.3;;
537;SDS011;254;48.524;8.926;2022-09-12T04:54:03;7.6;;;6.9;;
537;SDS011;254;48.524;8.926;2022-09-12T04:55:02;8.2;;;7.5;;
537;SDS011;254;48.524;8.926;2022-09-12T04:56:03;7.3;;;6.7;;
537;SDS011;254;48.524;8.926;2022-09-12T04:57:03;8.1;;;7.4;;
537;SDS011;254;48.524;8.926;2022-09-12T04:58:02;7.9;;;7.3;;
537;SDS011;254;48.524;8.926;2022-09-12T04:59:02;7.3;;;6.7;;
537;SDS011;254;48.524;8.926;2022-09-12T05:00:03;7.9;;;7.2;;
537;SDS011;254;48.524;8.926;2022-09-12T05:01:03;7.9;;;7.1;;
537;SDS011;254;48.524;8.926;2022-09-12T05:02:02;7.8;;;7.1;;
537;SDS011;254;48.524;8.926;2022-09-12T05:03:03;7.1;;;6.5;;
537;SDS011;254;48.524;8.926;2022-09-12T05:04:02;7.7;;;7.0;;
537;SDS011;254;48.524;8.926;2022-09-12T05:05:02;8.0;;;7.3;;
537;SDS011;254;48.524;8.926;2022-09-12T05:06:02;7.3;;;6.7;;
537;SDS011;254;48.524;8.926;2022-09-12T05:07:03;7.0;;;6.3;;
537;SDS011;254;48.524;8.926;2022-09-12T05:08:02;7.2;;;6.6;;
537;SDS011;254;48.524;8.926;2022-09-12T05:09:05;6.9;;;6.4;;
537;SDS011;254;48.524;8.926;2022-09-12T05:10:03;7.0;;;6.4;;
537;SDS011;254;48.524;8.926;2022-09-12T05:11:03;7.4;;;6.8;;
537;SDS011;254;48.524;8.926;2022-09-12T05:12:03;7.4;;;6.6;;
537;SDS011;254;48.524;8.926;2022-09-12T05:13:01;7.1;;;6.4;;
537;SDS011;254;48.524;8.926;2022-09-12T05:14:02;6.9;;;6.3;;
537;SDS011;254;48.524;8.926;2022-09-12T05:15:03;7.5;;;6.9;;
537;SDS011;254;48.524;8.926;2022-09-12T05:16:03;6.8;;;6.2;;
537;SDS011;254;48.524;8.926;2022-09-12T05:17:02;7.6;;;6.9;;
537;SDS011;254;48.524;8.926;2022-09-12T05:18:03;7.1;;;6.5;;
537;SDS011;254;48.524;8.926;2022-09-12T05:19:02;7.0;;;6.4;;
537;SDS011;254;48.524;8.926;2022-09-12T05:20:02;6.9;;;6.3;;
537;SDS011;254;48.524;8.926;2022-09-12T05:21:02;8.0;;;7.4;;
537;SDS011;254;48.524;8.926;2022-09-12T05:22:02;7.7;;;7.1;;
537;SDS011;254;48.524;8.926;2022-09-12T05:23:02;7.8;;;7.1;;
537;SDS011;254;48.524;8.926;2022-09-12T05:24:02;8.4;;;7.6;;
537;SDS011;254;48.524;8.926;2022-09-12T05:25:02;9.4;;;8.4;;
537;SDS011;254;48.524;8.926;2022-09-12T05:26:03;10.0;;;9.1;;
537;SDS011;254;48.524;8.926;2022-09-12T05:27:02;10.2;;;9.3;;
537;SDS011;254;48.524;8.926;2022-09-12T05:28:02;9.5;;;8.7;;
537;SDS011;254;48.524;8.926;2022-09-12T05:29:02;9.1;;;8.3;;
537;SDS011;254;48.524;8.926;2022-09-12T05:30:03;8.4;;;7.5;;
537;SDS011;254;48.524;8.926;2022-09-12T05:31:02;9.5;;;8.7;;
537;SDS011;254;48.524;8.926;2022-09-12T05:32:03;10.4;;;9.4;;
537;SDS011;254;48.524;8.926;2022-09-12T05:33:01;10.7;;;9.7;;
537;SDS011;254;48.524;8.926;2022-09-12T05:34:02;13.8;;;12.4;;
537;SDS011;254;48.524;8.926;2022-09-12T05:35:03;11.4;;;10.4;;
537;SDS011;254;48.524;8.926;2022-09-12T05:36:03;11.3;;;10.3;;
537;SDS011;254;48.524;8.926;2022-09-12T05:37:02;10.6;;;9.7;;
537;SDS011;254;48.524;8.926;2022-09-12T05:38:03;9.9;;;8.9;;
537;SDS011;254;48.524;8.926;2022-09-12T05:39:02;9.8;;;8.9;;
537;SDS011;254;48.524;8.926;2022-09-12T05:40:02;10.2;;;9.2;;
537;SDS011;254;48.524;8.926;2022-09-12T05:41:03;10.8;;;9.8;;
537;SDS011;254;48.524;8.926;2022-09-12T05:42:02;10.4;;;9.5;;
537;SDS011;254;48.524;8.926;2022-09-12T05:43:03;9.8;;;9.0;;
537;SDS011;254;48.524;8.926;2022-09-12T05:44:02;10.1;;;9.2;;
537;SDS011;254;48.524;8.926;2022-09-12T05:45:02;10.0;;;8.6;;
537;SDS011;254;48.524;8.926;2022-09-12T05:46:02;11.3;;;10.2;;
537;SDS011;254;48.524;8.926;2022-09-12T05:47:02;11.9;;;10.8;;
537;SDS011;254;48.524;8.926;2022-09-12T05:48:02;11.0;;;10.0;;
537;SDS011;254;48.524;8.926;2022-09-12T05:49:03;9.7;;;8.7;;
537;SDS011;254;48.524;8.926;2022-09-12T05:50:02;9.1;;;8.2;;
537;SDS011;254;48.524;8.926;2022-09-12T05:51:03;8.4;;;7.7;;
537;SDS011;254;48.524;8.926;2022-09-12T05:52:02;10.5;;;8.3;;
537;SDS011;254;48.524;8.926;2022-09-12T05:53:02;11.9;;;8.0;;
537;SDS011;254;48.524;8.926;2022-09-12T05:54:04;8.3;;;7.5;;
537;SDS011;254;48.524;8.926;2022-09-12T05:55:03;8.6;;;6.5;;
537;SDS011;254;48.524;8.926;2022-09-12T05:56:03;6.9;;;6.3;;
537;SDS011;254;48.524;8.926;2022-09-12T05:57:02;6.2;;;5.6;;
537;SDS011;254;48.524;8.926;2022-09-12T05:58:02;6.6;;;5.9;;
537;SDS011;254;48.524;8.926;2022-09-12T05:59:03;6.4;;;5.9;;
537;SDS011;254;48.524;8.926;2022-09-12T06:00:02;6.4;;;5.8;;
537;SDS011;254;48.524;8.926;2022-09-12T06:01:04;5.8;;;5.3;;
537;SDS011;254;48.524;8.926;2022-09-12T06:02:02;5.9;;;5.4;;
537;SDS011;254;48.524;8.926;2022-09-12T06:03:02;7.4;;;5.3;;
537;SDS011;254;48.524;8.926;2022-09-12T06:04:05;6.7;;;5.2;;
537;SDS011;254;48.524;8.926;2022-09-12T06:05:03;6.0;;;5.5;;
537;SDS011;254;48.524;8.926;2022-09-12T06:06:03;5.6;;;5.1;;
537;SDS011;254;48.524;8.926;2022-09-12T06:07:01;5.4;;;5.0;;
537;SDS011;254;48.524;8.926;2022-09-12T06:08:02;5.2;;;4.8;;
537;SDS011;254;48.524;8.926;2022-09-12T06:09:03;5.6;;;5.1;;
537;SDS011;254;48.524;8.926;2022-09-12T06:10:03;5.2;;;4.8;;
537;SDS011;254;48.524;8.926;2022-09-12T06:11:03;5.2;;;4.8;;
537;SDS011;254;48.524;8.926;2022-09-12T06:12:02;4.9;;;4.5;;
537;SDS011;254;48.524;8.926;2022-09-12T06:13:02;5.4;;;4.9;;
537;SDS011;254;48.524;8.926;2022-09-12T06:14:02;5.4;;;4.9;;
537;SDS011;254;48.524;8.926;2022-09-12T06:15:04;5.1;;;4.7;;
537;SDS011;254;48.524;8.926;2022-09-12T06:16:03;5.6;;;5.1;;
537;SDS011;254;48.524;8.926;2022-09-12T06:17:02;5.5;;;5.0;;
537;SDS011;254;48.524;8.926;2022-09-12T06:18:03;5.6;;;5.0;;
537;SDS011;254;48.524;8.926;2022-09-12T06:19:02;6.1;;;5.6;;
537;SDS011;254;48.524;8.926;2022-09-12T06:20:02;6.1;;;5.5;;
537;SDS011;254;48.524;8.926;2022-09-12T06:21:03;6.1;;;5.5;;
537;SDS011;254;48.524;8.926;2022-09-12T06:22:01;6.0;;;5.4;;
537;SDS011;254;48.524;8.926;2022-09-12T06:23:02;6.1;;;5.5;;
537;SDS011;254;48.524;8.926;2022-09-12T06:24:03;6.3;;;5.7;;
537;SDS011;254;48.524;8.926;2022-09-12T06:25:03;5.8;;;5.4;;
537;SDS011;254;48.524;8.926;2022-09-12T06:26:02;6.6;;;6.0;;
537;SDS011;254;48.524;8.926;2022-09-12T06:27:03;6.0;;;5.4;;
537;SDS011;254;48.524;8.926;2022-09-12T06:28:01;6.6;;;6.1;;
537;SDS011;254;48.524;8.926;2022-09-12T06:29:02;6.9;;;6.3;;